createdAt,value
2022-09-18T00:00:05.063Z,72
2022-09-18T00:01:44.832Z,72
2022-09-18T00:03:24.622Z,72
2022-09-18T00:05:04.370Z,72
2022-09-18T00:06:44.145Z,72
2022-09-18T00:08:23.911Z,72
2022-09-18T00:10:03.680Z,72
2022-09-18T00:11:43.476Z,72
2022-09-18T00:13:23.214Z,72
2022-09-18T00:15:02.975Z,72
2022-09-18T00:16:42.750Z,72
2022-09-18T00:18:22.508Z,72
2022-09-18T00:20:02.293Z,72
2022-09-18T00:23:21.805Z,72
2022-09-18T00:25:01.582Z,72
2022-09-18T00:26:41.372Z,72
2022-09-18T00:28:21.118Z,72
2022-09-18T00:30:00.896Z,72
2022-09-18T00:31:40.650Z,72
2022-09-18T00:33:20.429Z,72
2022-09-18T00:35:00.182Z,71
2022-09-18T00:36:39.952Z,71
2022-09-18T00:38:19.719Z,71
2022-09-18T00:39:59.506Z,71
2022-09-18T00:41:39.246Z,71
2022-09-18T00:43:19.026Z,71
2022-09-18T00:44:58.795Z,71
2022-09-18T00:46:38.553Z,71
2022-09-18T00:48:18.320Z,71
2022-09-18T00:49:58.097Z,71
2022-09-18T00:51:37.863Z,71
2022-09-18T00:53:17.637Z,71
2022-09-18T00:54:57.391Z,71
2022-09-18T00:56:37.165Z,71
2022-09-18T00:58:16.928Z,71
2022-09-18T00:59:56.686Z,71
2022-09-18T01:01:36.458Z,71
2022-09-18T01:03:16.238Z,71
2022-09-18T01:04:55.993Z,71
2022-09-18T01:06:35.768Z,71
2022-09-18T01:08:15.543Z,71
2022-09-18T01:09:55.306Z,71
2022-09-18T01:11:35.079Z,70
2022-09-18T01:13:14.827Z,71
2022-09-18T01:14:54.598Z,70
2022-09-18T01:16:34.375Z,70
2022-09-18T01:18:14.136Z,70
2022-09-18T01:19:53.898Z,70
2022-09-18T01:21:33.685Z,70
2022-09-18T01:23:13.448Z,70
2022-09-18T01:24:53.207Z,70
2022-09-18T01:26:32.977Z,70
2022-09-18T01:28:12.769Z,70
2022-09-18T01:29:52.503Z,70
2022-09-18T01:31:32.285Z,70
2022-09-18T01:33:12.068Z,70
2022-09-18T01:34:51.820Z,70
2022-09-18T01:36:31.603Z,70
2022-09-18T01:38:11.353Z,70
2022-09-18T01:39:51.115Z,70
2022-09-18T01:41:30.877Z,70
2022-09-18T01:43:10.643Z,70
2022-09-18T01:44:50.422Z,70
2022-09-18T01:46:30.185Z,70
2022-09-18T01:48:09.946Z,70
2022-09-18T01:49:49.707Z,70
2022-09-18T01:51:29.475Z,70
2022-09-18T01:53:09.247Z,70
2022-09-18T01:54:49.009Z,70
2022-09-18T01:56:28.784Z,70
2022-09-18T01:58:08.552Z,70
2022-09-18T01:59:48.315Z,70
2022-09-18T02:01:28.085Z,70
2022-09-18T02:03:07.867Z,70
2022-09-18T02:04:47.627Z,69
2022-09-18T02:06:27.398Z,69
2022-09-18T02:08:07.159Z,69
2022-09-18T02:09:46.936Z,69
2022-09-18T02:11:26.705Z,69
2022-09-18T02:13:06.467Z,69
2022-09-18T02:14:46.228Z,69
2022-09-18T02:16:25.997Z,69
2022-09-18T02:18:05.757Z,69
2022-09-18T02:19:45.532Z,69
2022-09-18T02:21:25.309Z,69
2022-09-18T02:23:05.066Z,69
2022-09-18T02:24:44.829Z,69
2022-09-18T02:26:24.611Z,69
2022-09-18T02:28:04.359Z,69
2022-09-18T02:29:44.130Z,69
2022-09-18T02:31:23.906Z,69
2022-09-18T02:33:03.679Z,69
2022-09-18T02:34:43.468Z,69
2022-09-18T02:36:23.199Z,69
2022-09-18T02:38:02.978Z,69
2022-09-18T02:39:42.744Z,69
2022-09-18T02:41:22.499Z,68
2022-09-18T02:44:42.040Z,68
2022-09-18T02:46:21.799Z,68
2022-09-18T02:48:01.570Z,68
2022-09-18T02:49:41.337Z,68
2022-09-18T02:51:21.104Z,68
2022-09-18T02:53:00.880Z,68
2022-09-18T02:54:40.649Z,68
2022-09-18T02:56:20.419Z,68
2022-09-18T02:58:00.179Z,68
2022-09-18T02:59:39.957Z,68
2022-09-18T03:01:19.720Z,68
2022-09-18T03:02:59.479Z,68
2022-09-18T03:04:39.254Z,68
2022-09-18T03:06:19.024Z,68
2022-09-18T03:07:58.784Z,67
2022-09-18T03:09:38.561Z,68
2022-09-18T03:11:18.318Z,68
2022-09-18T03:12:58.090Z,68
2022-09-18T03:14:37.854Z,68
2022-09-18T03:16:17.626Z,67
2022-09-18T03:17:57.393Z,67
2022-09-18T03:19:37.169Z,67
2022-09-18T03:21:16.932Z,67
2022-09-18T03:22:56.686Z,67
2022-09-18T03:24:36.452Z,67
2022-09-18T03:26:16.217Z,67
2022-09-18T03:27:55.990Z,67
2022-09-18T03:29:35.766Z,67
2022-09-18T03:31:15.519Z,67
2022-09-18T03:32:55.302Z,67
2022-09-18T03:34:35.056Z,67
2022-09-18T03:36:14.832Z,67
2022-09-18T03:37:54.600Z,67
2022-09-18T03:39:34.358Z,66
2022-09-18T03:41:14.131Z,66
2022-09-18T03:42:53.906Z,67
2022-09-18T03:44:33.667Z,66
2022-09-18T03:46:13.429Z,66
2022-09-18T03:47:53.207Z,66
2022-09-18T03:49:32.992Z,66
2022-09-18T03:51:12.766Z,66
2022-09-18T03:52:52.501Z,66
2022-09-18T03:54:32.265Z,66
2022-09-18T03:57:51.786Z,66
2022-09-18T03:59:31.556Z,66
2022-09-18T04:01:11.309Z,66
2022-09-18T04:02:51.083Z,66
2022-09-18T04:04:30.846Z,66
2022-09-18T04:06:10.622Z,66
2022-09-18T04:07:50.386Z,66
2022-09-18T04:09:30.149Z,66
2022-09-18T04:11:09.914Z,66
2022-09-18T04:12:49.667Z,66
2022-09-18T04:14:29.459Z,66
2022-09-18T04:16:09.212Z,66
2022-09-18T04:17:48.972Z,66
2022-09-18T04:19:28.732Z,66
2022-09-18T04:21:08.508Z,66
2022-09-18T04:22:48.259Z,65
2022-09-18T04:24:28.013Z,66
2022-09-18T04:27:47.556Z,65
2022-09-18T04:29:27.326Z,65
2022-09-18T04:31:07.070Z,66
2022-09-18T04:32:46.839Z,65
2022-09-18T04:34:26.619Z,65
2022-09-18T04:36:06.364Z,65
2022-09-18T04:37:46.130Z,65
2022-09-18T04:39:25.902Z,65
2022-09-18T04:41:05.670Z,65
2022-09-18T04:42:45.426Z,65
2022-09-18T04:44:25.204Z,65
2022-09-18T04:46:04.964Z,64
2022-09-18T04:47:44.733Z,65
2022-09-18T04:49:24.477Z,64
2022-09-18T04:51:04.247Z,64
2022-09-18T04:52:44.025Z,65
2022-09-18T04:54:23.789Z,64
2022-09-18T04:56:03.545Z,64
2022-09-18T04:57:43.297Z,65
2022-09-18T04:59:23.089Z,64
2022-09-18T05:01:02.834Z,64
2022-09-18T05:02:42.608Z,65
2022-09-18T05:04:22.368Z,65
2022-09-18T05:06:02.122Z,65
2022-09-18T05:07:41.903Z,61
2022-09-18T05:09:21.662Z,56
2022-09-18T05:11:01.420Z,51
2022-09-18T05:12:41.187Z,45
2022-09-18T05:14:20.962Z,39
2022-09-18T05:16:00.717Z,34
2022-09-18T05:17:40.471Z,29
2022-09-18T05:19:20.247Z,29
2022-09-18T05:21:00.017Z,29
2022-09-18T05:22:39.768Z,29
2022-09-18T05:24:19.540Z,30
2022-09-18T05:25:59.320Z,30
2022-09-18T05:27:39.078Z,30
2022-09-18T05:29:18.848Z,30
2022-09-18T05:32:38.413Z,30
2022-09-18T05:34:18.157Z,31
2022-09-18T05:37:37.701Z,31
2022-09-18T05:39:17.467Z,32
2022-09-18T05:40:57.242Z,33
2022-09-18T05:42:37.010Z,33
2022-09-18T05:44:16.773Z,34
2022-09-18T05:45:56.545Z,35
2022-09-18T05:47:36.321Z,36
2022-09-18T05:49:16.096Z,36
2022-09-18T05:50:55.863Z,36
2022-09-18T05:52:35.629Z,36
2022-09-18T05:54:15.409Z,36
2022-09-18T05:55:55.165Z,36
2022-09-18T05:57:34.933Z,36
2022-09-18T05:59:14.711Z,36
2022-09-18T06:00:54.484Z,36
2022-09-18T06:02:34.252Z,37
2022-09-18T06:04:14.042Z,38
2022-09-18T06:05:53.806Z,39
2022-09-18T06:07:33.553Z,39
2022-09-18T06:09:13.327Z,39
2022-09-18T06:10:53.106Z,41
2022-09-18T06:12:32.867Z,42
2022-09-18T06:14:12.647Z,44
2022-09-18T06:15:52.407Z,44
2022-09-18T06:17:32.170Z,48
2022-09-18T06:19:11.968Z,49
2022-09-18T06:20:51.726Z,52
2022-09-18T06:22:31.487Z,53
2022-09-18T06:24:11.269Z,52
2022-09-18T06:25:51.038Z,56
2022-09-18T06:27:30.801Z,57
2022-09-18T06:29:10.569Z,58
2022-09-18T06:30:50.342Z,63
2022-09-18T06:32:30.111Z,60
2022-09-18T06:34:09.866Z,61
2022-09-18T06:35:49.655Z,67
2022-09-18T06:37:29.416Z,73
2022-09-18T06:39:09.184Z,79
2022-09-18T06:40:48.976Z,85
2022-09-18T06:42:28.731Z,91
2022-09-18T06:44:08.500Z,89
2022-09-18T06:45:48.275Z,90
2022-09-18T06:47:28.039Z,91
2022-09-18T06:49:07.820Z,91
2022-09-18T06:50:47.582Z,91
2022-09-18T06:52:27.362Z,88
2022-09-18T06:54:07.116Z,90
2022-09-18T06:55:46.905Z,91
2022-09-18T06:57:26.653Z,88
2022-09-18T06:59:06.430Z,82
2022-09-18T07:00:46.211Z,82
2022-09-18T07:02:25.977Z,88
2022-09-18T07:04:05.746Z,90
2022-09-18T07:05:45.510Z,91
2022-09-18T07:07:25.318Z,92
2022-09-18T07:09:05.050Z,91
2022-09-18T07:10:44.832Z,92
2022-09-18T07:12:24.597Z,92
2022-09-18T07:14:04.386Z,92
2022-09-18T07:15:44.138Z,92
2022-09-18T07:17:23.902Z,92
2022-09-18T07:19:03.682Z,92
2022-09-18T07:20:43.442Z,93
2022-09-18T07:22:23.214Z,93
2022-09-18T07:24:02.981Z,92
2022-09-18T07:25:42.751Z,93
2022-09-18T07:27:22.536Z,92
2022-09-18T07:30:42.067Z,93
2022-09-18T07:32:21.885Z,93
2022-09-18T07:34:01.633Z,93
2022-09-18T07:35:41.386Z,93
2022-09-18T07:37:21.150Z,93
2022-09-18T07:39:00.973Z,94
2022-09-18T07:40:40.692Z,93
2022-09-18T07:42:20.476Z,94
2022-09-18T07:44:00.230Z,95
2022-09-18T07:45:40.001Z,94
2022-09-18T07:47:19.767Z,94
2022-09-18T07:48:59.546Z,94
2022-09-18T07:50:39.306Z,94
2022-09-18T07:52:19.088Z,94
2022-09-18T07:53:58.863Z,94
2022-09-18T07:55:38.633Z,95
2022-09-18T07:57:18.391Z,94
2022-09-18T07:58:58.162Z,93
2022-09-18T08:00:37.932Z,92
2022-09-18T08:02:17.739Z,95
2022-09-18T08:03:57.471Z,94
2022-09-18T08:05:37.244Z,94
2022-09-18T08:07:17.025Z,94
2022-09-18T08:08:56.789Z,95
2022-09-18T08:10:36.567Z,94
2022-09-18T08:12:16.336Z,96
2022-09-18T08:13:56.106Z,95
2022-09-18T08:15:35.903Z,95
2022-09-18T08:17:15.781Z,94
2022-09-18T08:20:35.178Z,95
2022-09-18T08:22:14.946Z,96
2022-09-18T08:23:54.758Z,95
2022-09-18T08:25:34.511Z,96
2022-09-18T08:27:14.340Z,97
2022-09-18T08:28:54.036Z,97
2022-09-18T08:30:33.802Z,96
2022-09-18T08:32:13.568Z,97
2022-09-18T08:33:53.404Z,97
2022-09-18T08:37:12.949Z,96
2022-09-18T08:38:52.673Z,97
2022-09-18T08:40:32.434Z,96
2022-09-18T08:42:12.184Z,97
2022-09-18T08:43:51.994Z,97
2022-09-18T08:47:11.519Z,97
2022-09-18T08:48:51.313Z,97
2022-09-18T08:50:31.061Z,97
2022-09-18T08:52:10.824Z,97
2022-09-18T08:53:50.593Z,98
2022-09-18T08:55:30.363Z,97
2022-09-18T08:57:10.176Z,98
2022-09-18T08:58:49.903Z,98
2022-09-18T09:00:29.663Z,97
2022-09-18T09:02:09.466Z,98
2022-09-18T09:03:49.223Z,100
2022-09-18T09:05:28.976Z,98
2022-09-18T09:07:08.740Z,98
2022-09-18T09:08:48.513Z,99
2022-09-18T09:10:28.301Z,98
2022-09-18T09:12:08.067Z,98
2022-09-18T09:13:47.840Z,100
2022-09-18T09:15:27.601Z,99
2022-09-18T09:17:07.489Z,99
2022-09-18T09:18:47.144Z,99
2022-09-18T09:20:27.008Z,100
2022-09-18T09:22:06.718Z,99
2022-09-18T09:23:46.588Z,99
2022-09-18T09:25:26.218Z,99
2022-09-18T09:27:06.001Z,99
2022-09-18T09:28:45.762Z,100
2022-09-18T09:30:25.534Z,100
2022-09-18T09:32:05.333Z,100
2022-09-18T09:33:45.086Z,100
2022-09-18T09:35:24.849Z,100
2022-09-18T09:37:04.620Z,100
2022-09-18T09:38:44.388Z,100
2022-09-18T09:40:24.158Z,100
2022-09-18T09:42:03.918Z,100
2022-09-18T09:43:43.696Z,100
2022-09-18T09:45:23.470Z,100
2022-09-18T09:47:03.238Z,100
2022-09-18T09:48:43.015Z,100
2022-09-18T09:50:22.767Z,100
2022-09-18T09:52:02.541Z,100
2022-09-18T09:53:42.315Z,100
2022-09-18T09:55:22.098Z,100
2022-09-18T09:57:01.890Z,100
2022-09-18T09:58:41.631Z,100
2022-09-18T10:00:21.385Z,100
2022-09-18T10:02:01.169Z,100
2022-09-18T10:03:40.948Z,100
2022-09-18T10:05:20.709Z,100
2022-09-18T10:07:00.469Z,100
2022-09-18T10:08:40.251Z,100
2022-09-18T10:10:20.019Z,100
2022-09-18T10:11:59.783Z,100
2022-09-18T10:13:39.566Z,100
2022-09-18T10:15:19.330Z,100
2022-09-18T10:16:59.091Z,100
2022-09-18T10:18:38.856Z,100
2022-09-18T10:20:18.631Z,100
2022-09-18T10:21:58.403Z,100
2022-09-18T10:23:38.188Z,100
2022-09-18T10:25:17.945Z,100
2022-09-18T10:26:57.716Z,100
2022-09-18T10:28:37.486Z,100
2022-09-18T10:30:17.269Z,100
2022-09-18T10:31:57.034Z,100
2022-09-18T10:33:36.801Z,100
2022-09-18T10:35:16.574Z,100
2022-09-18T10:36:56.340Z,100
2022-09-18T10:38:36.122Z,100
2022-09-18T10:40:15.868Z,100
2022-09-18T10:41:55.644Z,100
2022-09-18T10:43:35.413Z,100
2022-09-18T10:45:15.188Z,100
2022-09-18T10:46:54.948Z,100
2022-09-18T10:48:34.736Z,100
2022-09-18T10:50:14.509Z,100
2022-09-18T10:51:54.273Z,100
2022-09-18T10:53:34.048Z,100
2022-09-18T10:55:13.815Z,100
2022-09-18T10:56:53.584Z,100
2022-09-18T10:58:33.359Z,100
2022-09-18T11:00:13.142Z,100
2022-09-18T11:03:32.660Z,100
2022-09-18T11:05:12.434Z,100
2022-09-18T11:06:52.197Z,100
2022-09-18T11:08:31.961Z,100
2022-09-18T11:10:11.749Z,100
2022-09-18T11:11:51.517Z,100
2022-09-18T11:13:31.287Z,100
2022-09-18T11:15:11.059Z,100
2022-09-18T11:16:50.818Z,100
2022-09-18T11:18:30.585Z,100
2022-09-18T11:20:10.414Z,100
2022-09-18T11:21:50.142Z,100
2022-09-18T11:23:29.916Z,100
2022-09-18T11:25:09.682Z,100
2022-09-18T11:26:49.437Z,100
2022-09-18T11:28:29.215Z,100
2022-09-18T11:30:08.986Z,100
2022-09-18T11:31:48.766Z,100
2022-09-18T11:33:28.519Z,100
2022-09-18T11:35:08.290Z,100
2022-09-18T11:36:48.075Z,100
2022-09-18T11:38:27.875Z,100
2022-09-18T11:40:07.638Z,100
2022-09-18T11:41:47.372Z,100
2022-09-18T11:43:27.150Z,100
2022-09-18T11:45:06.912Z,100
2022-09-18T11:46:46.692Z,100
2022-09-18T11:48:26.470Z,100
2022-09-18T11:50:06.244Z,100
2022-09-18T11:51:46.011Z,100
2022-09-18T11:53:25.791Z,100
2022-09-18T11:55:05.545Z,100
2022-09-18T11:56:45.311Z,100
2022-09-18T11:58:25.074Z,100
2022-09-18T12:00:04.857Z,100
2022-09-18T12:01:44.628Z,100
2022-09-18T12:03:24.432Z,100
2022-09-18T12:05:04.159Z,100
2022-09-18T12:06:43.928Z,100
2022-09-18T12:08:22.338Z,100
2022-09-18T12:10:02.105Z,100
2022-09-18T12:11:41.873Z,100
2022-09-18T12:13:21.647Z,100
2022-09-18T12:15:01.424Z,100
2022-09-18T12:16:41.182Z,100
2022-09-18T12:18:20.972Z,100
2022-09-18T12:20:00.718Z,100
2022-09-18T12:21:40.501Z,100
2022-09-18T12:23:20.273Z,100
2022-09-18T12:25:00.032Z,100
2022-09-18T12:26:39.802Z,100
2022-09-18T12:28:19.562Z,100
2022-09-18T12:29:59.346Z,100
2022-09-18T12:31:39.123Z,100
2022-09-18T12:33:18.890Z,100
2022-09-18T12:34:58.637Z,100
2022-09-18T12:36:38.465Z,100
2022-09-18T12:38:18.192Z,100
2022-09-18T12:39:58.632Z,100
2022-09-18T12:41:38.397Z,100
2022-09-18T12:43:18.167Z,100
2022-09-18T12:44:57.924Z,100
2022-09-18T12:46:37.702Z,100
2022-09-18T12:48:17.466Z,100
2022-09-18T12:49:57.237Z,100
2022-09-18T12:51:37.004Z,100
2022-09-18T12:53:16.764Z,100
2022-09-18T12:54:56.544Z,100
2022-09-18T12:56:36.304Z,100
2022-09-18T12:58:16.114Z,100
2022-09-18T12:59:55.846Z,100
2022-09-18T13:01:35.627Z,100
2022-09-18T13:03:15.400Z,100
2022-09-18T13:04:55.159Z,100
2022-09-18T13:06:34.935Z,100
2022-09-18T13:08:14.690Z,100
2022-09-18T13:09:54.464Z,100
2022-09-18T13:11:34.239Z,100
2022-09-18T13:13:13.999Z,100
2022-09-18T13:14:53.911Z,100
2022-09-18T13:16:34.360Z,100
2022-09-18T13:18:14.035Z,100
2022-09-18T13:19:53.810Z,100
2022-09-18T13:21:33.648Z,100
2022-09-18T13:23:13.462Z,100
2022-09-18T13:24:53.276Z,100
2022-09-18T13:26:33.030Z,100
2022-09-18T13:28:12.803Z,100
2022-09-18T13:29:52.572Z,100
2022-09-18T13:31:32.191Z,100
2022-09-18T13:33:12.093Z,100
2022-09-18T13:34:51.732Z,100
2022-09-18T13:36:31.612Z,100
2022-09-18T13:39:51.031Z,100
2022-09-18T13:41:30.802Z,100
2022-09-18T13:43:10.623Z,100
2022-09-18T13:44:50.347Z,100
2022-09-18T13:46:30.138Z,100
2022-09-18T13:48:09.929Z,100
2022-09-18T13:49:49.667Z,100
2022-09-18T13:51:29.436Z,100
2022-09-18T13:53:09.193Z,100
2022-09-18T13:54:48.971Z,100
2022-09-18T13:56:28.719Z,100
2022-09-18T13:58:08.501Z,100
2022-09-18T13:59:48.273Z,100
2022-09-18T14:01:28.027Z,100
2022-09-18T14:03:07.816Z,100
2022-09-18T14:04:47.570Z,100
2022-09-18T14:06:27.345Z,100
2022-09-18T14:08:07.115Z,100
2022-09-18T14:09:46.898Z,100
2022-09-18T14:11:26.662Z,100
2022-09-18T14:13:06.425Z,100
2022-09-18T14:14:46.189Z,100
2022-09-18T14:16:25.948Z,100
2022-09-18T14:18:05.730Z,100
2022-09-18T14:19:45.498Z,100
2022-09-18T14:21:25.266Z,100
2022-09-18T14:23:05.030Z,100
2022-09-18T14:24:44.804Z,100
2022-09-18T14:26:24.586Z,100
2022-09-18T14:29:44.113Z,100
2022-09-18T14:31:23.888Z,100
2022-09-18T14:33:03.649Z,100
2022-09-18T14:34:43.426Z,100
2022-09-18T14:36:23.206Z,100
2022-09-18T14:38:02.967Z,100
2022-09-18T14:39:42.740Z,100
2022-09-18T14:43:02.295Z,100
2022-09-18T14:44:42.045Z,100
2022-09-18T14:46:21.822Z,100
2022-09-18T14:48:01.580Z,100
2022-09-18T14:49:41.355Z,100
2022-09-18T14:51:21.120Z,100
2022-09-18T14:53:00.908Z,100
2022-09-18T14:54:40.661Z,100
2022-09-18T14:56:20.451Z,100
2022-09-18T14:58:00.220Z,100
2022-09-18T14:59:39.983Z,100
2022-09-18T15:01:19.757Z,100
2022-09-18T15:02:59.523Z,100
2022-09-18T15:04:39.291Z,100
2022-09-18T15:06:19.059Z,100
2022-09-18T15:07:58.833Z,100
2022-09-18T15:09:38.602Z,100
2022-09-18T15:11:18.389Z,100
2022-09-18T15:12:58.144Z,100
2022-09-18T15:14:37.933Z,100
2022-09-18T15:16:17.692Z,100
2022-09-18T15:17:57.461Z,100
2022-09-18T15:19:37.275Z,100
2022-09-18T15:21:16.996Z,100
2022-09-18T15:22:56.780Z,100
2022-09-18T15:24:36.542Z,100
2022-09-18T15:26:16.335Z,100
2022-09-18T15:27:56.101Z,100
2022-09-18T15:29:35.872Z,100
2022-09-18T15:31:15.651Z,100
2022-09-18T15:32:55.408Z,100
2022-09-18T15:34:35.191Z,100
2022-09-18T15:36:14.955Z,100
2022-09-18T15:37:54.737Z,100
2022-09-18T15:39:34.509Z,100
2022-09-18T15:41:14.280Z,100
2022-09-18T15:42:54.042Z,100
2022-09-18T15:44:33.826Z,100
2022-09-18T15:46:13.589Z,100
2022-09-18T15:47:53.361Z,100
2022-09-18T15:49:33.120Z,100
2022-09-18T15:51:12.889Z,100
2022-09-18T15:52:52.667Z,100
2022-09-18T15:54:32.450Z,100
2022-09-18T15:56:12.212Z,100
2022-09-18T15:57:51.984Z,100
2022-09-18T15:59:31.770Z,100
2022-09-18T16:02:51.295Z,100
2022-09-18T16:04:31.073Z,100
2022-09-18T16:06:10.843Z,100
2022-09-18T16:07:50.600Z,100
2022-09-18T16:09:30.381Z,100
2022-09-18T16:11:10.143Z,100
2022-09-18T16:12:49.907Z,100
2022-09-18T16:14:29.681Z,100
2022-09-18T16:16:09.447Z,100
2022-09-18T16:17:49.219Z,100
2022-09-18T16:19:28.996Z,100
2022-09-18T16:21:08.793Z,100
2022-09-18T16:22:48.531Z,100
2022-09-18T16:24:28.309Z,100
2022-09-18T16:26:08.068Z,100
2022-09-18T16:27:47.843Z,100
2022-09-18T16:29:27.615Z,100
2022-09-18T16:31:07.383Z,100
2022-09-18T16:32:47.151Z,100
2022-09-18T16:34:26.910Z,100
2022-09-18T16:36:06.691Z,100
2022-09-18T16:37:46.471Z,100
2022-09-18T16:39:26.240Z,100
2022-09-18T16:42:45.763Z,100
2022-09-18T16:44:25.541Z,100
2022-09-18T16:46:05.302Z,100
2022-09-18T16:47:45.074Z,100
2022-09-18T16:49:24.861Z,100
2022-09-18T16:51:04.619Z,100
2022-09-18T16:52:44.380Z,100
2022-09-18T16:54:24.155Z,100
2022-09-18T16:56:03.948Z,100
2022-09-18T16:57:43.681Z,100
2022-09-18T16:59:23.485Z,100
2022-09-18T17:01:03.221Z,100
2022-09-18T17:02:42.996Z,100
2022-09-18T17:06:02.527Z,95
2022-09-18T17:07:42.295Z,94
2022-09-18T17:09:22.061Z,93
2022-09-18T17:11:01.839Z,92
2022-09-18T17:12:41.598Z,91
2022-09-18T17:14:21.368Z,90
2022-09-18T17:16:01.129Z,90
2022-09-18T17:17:40.908Z,90
2022-09-18T17:19:20.679Z,90
2022-09-18T17:21:00.424Z,89
2022-09-18T17:22:40.209Z,88
2022-09-18T17:24:19.978Z,88
2022-09-18T17:25:59.726Z,87
2022-09-18T17:27:39.507Z,87
2022-09-18T17:29:19.281Z,87
2022-09-18T17:30:59.043Z,86
2022-09-18T17:32:38.831Z,85
2022-09-18T17:35:58.347Z,85
2022-09-18T17:37:38.143Z,85
2022-09-18T17:39:17.880Z,85
2022-09-18T17:40:57.647Z,85
2022-09-18T17:42:37.411Z,84
2022-09-18T17:44:17.171Z,84
2022-09-18T17:45:56.953Z,84
2022-09-18T17:47:36.728Z,84
2022-09-18T17:49:16.490Z,83
2022-09-18T17:50:56.246Z,84
2022-09-18T17:52:36.009Z,83
2022-09-18T17:54:15.793Z,83
2022-09-18T17:55:55.547Z,83
2022-09-18T17:57:35.320Z,82
2022-09-18T17:59:15.094Z,82
2022-09-18T18:00:54.851Z,82
2022-09-18T18:02:34.644Z,82
2022-09-18T18:04:14.388Z,82
2022-09-18T18:05:54.168Z,82
2022-09-18T18:07:33.954Z,81
2022-09-18T18:09:13.714Z,81
2022-09-18T18:12:33.229Z,81
2022-09-18T18:14:12.986Z,81
2022-09-18T18:15:52.759Z,81
2022-09-18T18:17:32.536Z,80
2022-09-18T18:19:12.299Z,80
2022-09-18T18:20:52.062Z,80
2022-09-18T18:22:31.889Z,80
2022-09-18T18:24:11.592Z,80
2022-09-18T18:25:51.367Z,80
2022-09-18T18:27:31.139Z,80
2022-09-18T18:29:10.908Z,80
2022-09-18T18:30:50.667Z,80
2022-09-18T18:32:30.450Z,80
2022-09-18T18:34:10.204Z,80
2022-09-18T18:35:49.992Z,80
2022-09-18T18:37:29.733Z,80
2022-09-18T18:39:09.507Z,79
2022-09-18T18:40:49.267Z,79
2022-09-18T18:42:29.089Z,79
2022-09-18T18:44:08.823Z,79
2022-09-18T18:45:48.583Z,79
2022-09-18T18:47:28.343Z,79
2022-09-18T18:49:08.110Z,79
2022-09-18T18:50:47.881Z,79
2022-09-18T18:52:27.678Z,79
2022-09-18T18:54:07.408Z,79
2022-09-18T18:55:47.189Z,79
2022-09-18T18:57:26.945Z,79
2022-09-18T18:59:06.715Z,79
2022-09-18T19:00:46.510Z,79
2022-09-18T19:02:26.278Z,78
2022-09-18T19:04:06.018Z,79
2022-09-18T19:05:45.781Z,78
2022-09-18T19:07:25.543Z,78
2022-09-18T19:09:05.321Z,78
2022-09-18T19:10:45.075Z,78
2022-09-18T19:12:24.885Z,78
2022-09-18T19:14:04.618Z,78
2022-09-18T19:15:44.412Z,78
2022-09-18T19:17:24.144Z,78
2022-09-18T19:19:03.928Z,78
2022-09-18T19:20:43.697Z,78
2022-09-18T19:22:23.461Z,78
2022-09-18T19:24:03.216Z,78
2022-09-18T19:25:43.007Z,78
2022-09-18T19:27:22.768Z,78
2022-09-18T19:29:02.514Z,78
2022-09-18T19:30:42.303Z,78
2022-09-18T19:32:22.066Z,78
2022-09-18T19:34:01.830Z,78
2022-09-18T19:35:41.603Z,78
2022-09-18T19:37:21.359Z,77
2022-09-18T19:39:01.126Z,77
2022-09-18T19:40:40.904Z,77
2022-09-18T19:42:20.674Z,77
2022-09-18T19:44:00.421Z,77
2022-09-18T19:45:40.205Z,77
2022-09-18T19:47:19.969Z,77
2022-09-18T19:48:59.738Z,77
2022-09-18T19:50:39.510Z,77
2022-09-18T19:52:19.264Z,77
2022-09-18T19:55:38.795Z,77
2022-09-18T19:57:18.562Z,77
2022-09-18T19:58:58.342Z,77
2022-09-18T20:00:38.099Z,77
2022-09-18T20:02:17.909Z,77
2022-09-18T20:03:57.641Z,77
2022-09-18T20:05:37.398Z,77
2022-09-18T20:07:17.168Z,77
2022-09-18T20:08:56.931Z,77
2022-09-18T20:10:36.703Z,76
2022-09-18T20:15:36.011Z,77
2022-09-18T20:17:15.808Z,76
2022-09-18T20:18:55.551Z,76
2022-09-18T20:20:35.317Z,76
2022-09-18T20:22:15.106Z,76
2022-09-18T20:23:54.867Z,76
2022-09-18T20:25:34.618Z,76
2022-09-18T20:27:14.398Z,76
2022-09-18T20:28:54.159Z,76
2022-09-18T20:30:33.934Z,76
2022-09-18T20:32:13.754Z,76
2022-09-18T20:33:53.459Z,76
2022-09-18T20:35:33.228Z,76
2022-09-18T20:37:12.986Z,76
2022-09-18T20:38:52.759Z,76
2022-09-18T20:40:32.520Z,76
2022-09-18T20:42:12.291Z,76
2022-09-18T20:43:52.061Z,76
2022-09-18T20:45:31.834Z,76
2022-09-18T20:47:11.592Z,76
2022-09-18T20:48:51.391Z,76
2022-09-18T20:50:31.140Z,76
2022-09-18T20:52:10.897Z,76
2022-09-18T20:53:50.673Z,76
2022-09-18T20:55:30.433Z,76
2022-09-18T20:57:10.202Z,76
2022-09-18T20:58:49.962Z,75
2022-09-18T21:00:29.731Z,76
2022-09-18T21:02:09.509Z,76
2022-09-18T21:03:49.271Z,75
2022-09-18T21:05:29.029Z,76
2022-09-18T21:07:08.807Z,75
2022-09-18T21:08:48.599Z,75
2022-09-18T21:10:28.358Z,75
2022-09-18T21:12:08.101Z,75
2022-09-18T21:13:47.878Z,75
2022-09-18T21:15:27.638Z,75
2022-09-18T21:17:07.421Z,75
2022-09-18T21:18:47.181Z,75
2022-09-18T21:20:26.949Z,75
2022-09-18T21:22:06.715Z,75
2022-09-18T21:23:46.479Z,75
2022-09-18T21:25:26.252Z,75
2022-09-18T21:27:06.005Z,75
2022-09-18T21:28:45.772Z,75
2022-09-18T21:30:25.554Z,75
2022-09-18T21:32:05.313Z,75
2022-09-18T21:33:45.087Z,75
2022-09-18T21:35:24.857Z,75
2022-09-18T21:37:04.617Z,75
2022-09-18T21:38:44.408Z,75
2022-09-18T21:40:24.159Z,75
2022-09-18T21:42:03.921Z,75
2022-09-18T21:43:43.690Z,75
2022-09-18T21:45:23.453Z,75
2022-09-18T21:47:03.220Z,75
2022-09-18T21:48:43.000Z,75
2022-09-18T21:50:22.783Z,75
2022-09-18T21:52:02.522Z,75
2022-09-18T21:53:42.296Z,75
2022-09-18T21:55:22.050Z,75
2022-09-18T21:57:01.826Z,75
2022-09-18T21:58:41.588Z,75
2022-09-18T22:00:21.365Z,75
2022-09-18T22:02:01.120Z,74
2022-09-18T22:03:40.910Z,74
2022-09-18T22:05:20.651Z,74
2022-09-18T22:07:00.432Z,74
2022-09-18T22:08:40.215Z,75
2022-09-18T22:11:59.729Z,74
2022-09-18T22:13:39.492Z,74
2022-09-18T22:15:19.284Z,74
2022-09-18T22:16:59.031Z,74
2022-09-18T22:18:38.807Z,74
2022-09-18T22:20:18.571Z,74
2022-09-18T22:21:58.353Z,74
2022-09-18T22:23:38.098Z,74
2022-09-18T22:25:17.874Z,74
2022-09-18T22:26:57.637Z,74
2022-09-18T22:28:37.395Z,74
2022-09-18T22:30:17.171Z,74
2022-09-18T22:31:56.933Z,74
2022-09-18T22:33:36.708Z,74
2022-09-18T22:35:16.529Z,74
2022-09-18T22:36:56.249Z,74
2022-09-18T22:38:36.023Z,74
2022-09-18T22:40:15.778Z,74
2022-09-18T22:41:55.559Z,74
2022-09-18T22:43:35.309Z,74
2022-09-18T22:45:15.093Z,74
2022-09-18T22:48:34.609Z,74
2022-09-18T22:55:13.691Z,74
2022-09-18T22:56:53.455Z,73
2022-09-18T22:58:33.227Z,73
2022-09-18T23:00:12.990Z,73
2022-09-18T23:01:52.757Z,73
2022-09-18T23:03:32.526Z,73
2022-09-18T23:05:12.289Z,73
2022-09-18T23:06:52.094Z,73
2022-09-18T23:08:31.830Z,73
2022-09-18T23:10:11.595Z,73
2022-09-18T23:11:51.360Z,73
2022-09-18T23:13:31.121Z,73
2022-09-18T23:15:10.899Z,73
2022-09-18T23:16:50.661Z,73
2022-09-18T23:18:30.437Z,73
2022-09-18T23:20:10.192Z,73
2022-09-18T23:21:49.957Z,73
2022-09-18T23:23:29.743Z,73
2022-09-18T23:25:09.489Z,73
2022-09-18T23:26:49.276Z,73
2022-09-18T23:28:29.039Z,73
2022-09-18T23:30:08.802Z,73
2022-09-18T23:31:48.558Z,73
2022-09-18T23:33:28.330Z,73
2022-09-18T23:35:08.102Z,73
2022-09-18T23:36:47.887Z,73
2022-09-18T23:38:27.640Z,73
2022-09-18T23:40:07.398Z,73
2022-09-18T23:41:47.178Z,73
2022-09-18T23:45:06.700Z,72
2022-09-18T23:46:46.471Z,72
2022-09-18T23:48:26.256Z,72
2022-09-18T23:50:06.000Z,72
2022-09-18T23:51:45.840Z,72
2022-09-18T23:53:25.552Z,72
2022-09-18T23:55:05.304Z,72
2022-09-18T23:56:45.091Z,72
2022-09-18T23:58:24.844Z,72
